createdAt,value
2018-06-04T00:00:07.361Z,99.90
2018-06-04T00:01:11.743Z,99.90
2018-06-04T00:02:16.044Z,99.90
2018-06-04T00:03:20.497Z,99.90
2018-06-04T00:04:25.003Z,99.90
2018-06-04T00:05:29.359Z,99.90
2018-06-04T00:06:33.738Z,99.90
2018-06-04T00:07:37.979Z,99.90
2018-06-04T00:08:42.305Z,99.90
2018-06-04T00:09:46.619Z,99.90
2018-06-04T00:10:51.001Z,99.90
2018-06-04T00:11:55.228Z,99.90
2018-06-04T00:12:59.423Z,99.90
2018-06-04T00:14:03.689Z,99.90
2018-06-04T00:15:07.918Z,99.90
2018-06-04T00:16:12.230Z,99.90
2018-06-04T00:17:16.434Z,99.90
2018-06-04T00:18:20.728Z,99.90
2018-06-04T00:19:25.003Z,99.90
2018-06-04T00:20:29.251Z,99.90
2018-06-04T00:21:33.468Z,99.90
2018-06-04T00:22:37.646Z,99.90
2018-06-04T00:23:41.872Z,99.90
2018-06-04T00:24:46.091Z,99.90
2018-06-04T00:25:50.309Z,99.90
2018-06-04T00:26:54.560Z,99.90
2018-06-04T00:27:58.781Z,99.90
2018-06-04T00:29:03.133Z,99.90
2018-06-04T00:30:07.389Z,99.90
2018-06-04T00:31:11.653Z,99.90
2018-06-04T00:32:16.042Z,99.90
2018-06-04T00:33:20.585Z,99.90
2018-06-04T00:34:24.832Z,99.90
2018-06-04T00:35:29.325Z,99.90
2018-06-04T00:36:33.626Z,99.90
2018-06-04T00:37:38.199Z,99.90
2018-06-04T00:38:42.460Z,99.90
2018-06-04T00:39:46.908Z,99.90
2018-06-04T00:40:51.151Z,99.90
2018-06-04T00:41:55.469Z,99.90
2018-06-04T00:42:59.856Z,99.90
2018-06-04T00:44:04.166Z,99.90
2018-06-04T00:45:08.479Z,99.90
2018-06-04T00:46:12.768Z,99.90
2018-06-04T00:47:17.067Z,99.90
2018-06-04T00:48:21.585Z,99.90
2018-06-04T00:49:25.895Z,99.90
2018-06-04T00:50:30.183Z,99.90
2018-06-04T00:51:34.429Z,99.90
2018-06-04T00:52:38.749Z,99.90
2018-06-04T00:53:43.044Z,99.90
2018-06-04T00:54:47.655Z,99.90
2018-06-04T00:56:02.613Z,99.90
2018-06-04T00:57:06.901Z,99.90
2018-06-04T00:58:11.570Z,99.90
2018-06-04T00:59:16.111Z,99.90
2018-06-04T01:00:21.183Z,99.90
2018-06-04T01:01:25.411Z,99.90
2018-06-04T01:02:29.680Z,99.90
2018-06-04T01:03:35.076Z,99.90
2018-06-04T01:04:39.364Z,99.90
2018-06-04T01:05:43.619Z,99.90
2018-06-04T01:06:47.863Z,99.90
2018-06-04T01:07:52.079Z,99.90
2018-06-04T01:08:56.533Z,99.90
2018-06-04T01:10:00.881Z,99.90
2018-06-04T01:11:05.385Z,99.90
2018-06-04T01:12:09.768Z,99.90
2018-06-04T01:13:14.052Z,99.90
2018-06-04T01:14:18.502Z,99.90
2018-06-04T01:15:23.000Z,99.90
2018-06-04T01:16:27.224Z,99.90
2018-06-04T01:17:31.456Z,99.90
2018-06-04T01:18:35.747Z,99.90
2018-06-04T01:19:39.996Z,99.90
2018-06-04T01:20:44.252Z,99.90
2018-06-04T01:21:48.496Z,99.90
2018-06-04T01:22:53.286Z,99.90
2018-06-04T01:23:57.941Z,99.90
2018-06-04T01:25:02.248Z,99.90
2018-06-04T01:26:06.772Z,99.90
2018-06-04T01:27:11.162Z,99.90
2018-06-04T01:28:15.390Z,99.90
2018-06-04T01:29:19.645Z,99.90
2018-06-04T01:30:24.209Z,99.90
2018-06-04T01:31:28.744Z,99.90
2018-06-04T01:32:32.996Z,99.90
2018-06-04T01:33:37.212Z,99.90
2018-06-04T01:34:41.972Z,99.90
2018-06-04T01:35:46.275Z,99.90
2018-06-04T01:36:51.272Z,99.90
2018-06-04T01:37:55.494Z,99.90
2018-06-04T01:38:59.736Z,99.90
2018-06-04T01:40:04.380Z,99.90
2018-06-04T01:41:08.591Z,99.90
2018-06-04T01:42:13.141Z,99.90
2018-06-04T01:43:17.388Z,99.90
2018-06-04T01:44:21.673Z,99.90
2018-06-04T01:45:26.201Z,99.90
2018-06-04T01:46:30.439Z,99.90
2018-06-04T01:47:34.701Z,99.90
2018-06-04T01:48:38.943Z,99.90
2018-06-04T01:49:43.202Z,99.90
2018-06-04T01:50:47.617Z,99.90
2018-06-04T01:51:51.943Z,99.90
2018-06-04T01:52:56.404Z,99.90
2018-06-04T01:54:00.944Z,99.90
2018-06-04T01:55:05.341Z,99.90
2018-06-04T01:56:09.901Z,99.90
2018-06-04T01:57:14.822Z,99.90
2018-06-04T01:58:19.066Z,99.90
2018-06-04T01:59:23.346Z,99.90
2018-06-04T02:00:29.346Z,99.90
2018-06-04T02:01:33.695Z,99.90
2018-06-04T02:02:37.983Z,99.90
2018-06-04T02:03:42.234Z,99.90
2018-06-04T02:04:46.651Z,99.90
2018-06-04T02:05:51.107Z,99.90
2018-06-04T02:06:55.343Z,99.90
2018-06-04T02:07:59.594Z,99.90
2018-06-04T02:09:04.274Z,99.90
2018-06-04T02:10:08.602Z,99.90
2018-06-04T02:12:17.053Z,99.90
2018-06-04T02:13:21.349Z,99.90
2018-06-04T02:14:26.042Z,99.90
2018-06-04T02:15:30.689Z,99.90
2018-06-04T02:16:34.932Z,99.90
2018-06-04T02:17:39.311Z,99.90
2018-06-04T02:18:43.978Z,99.90
2018-06-04T02:19:48.247Z,99.90
2018-06-04T02:20:52.518Z,99.90
2018-06-04T02:21:56.827Z,99.90
2018-06-04T02:23:01.469Z,99.90
2018-06-04T02:24:05.972Z,99.90
2018-06-04T02:25:10.575Z,99.90
2018-06-04T02:26:14.826Z,99.90
2018-06-04T02:27:19.053Z,99.90
2018-06-04T02:28:23.775Z,99.90
2018-06-04T02:29:28.746Z,99.90
2018-06-04T02:30:33.217Z,99.90
2018-06-04T02:31:37.615Z,99.90
2018-06-04T02:33:45.879Z,99.90
2018-06-04T02:34:50.125Z,99.90
2018-06-04T02:35:54.376Z,99.90
2018-06-04T02:36:58.663Z,99.90
2018-06-04T02:38:02.900Z,99.90
2018-06-04T02:39:08.474Z,99.90
2018-06-04T02:40:13.013Z,99.90
2018-06-04T02:41:17.547Z,99.90
2018-06-04T02:42:21.839Z,99.90
2018-06-04T02:43:26.177Z,99.90
2018-06-04T02:44:30.435Z,99.90
2018-06-04T02:45:34.693Z,99.90
2018-06-04T02:46:38.931Z,99.90
2018-06-04T02:47:43.217Z,99.90
2018-06-04T02:48:47.699Z,99.90
2018-06-04T02:49:52.064Z,99.90
2018-06-04T02:50:56.231Z,99.90
2018-06-04T02:52:00.549Z,99.90
2018-06-04T02:53:05.102Z,99.90
2018-06-04T02:54:09.342Z,99.90
2018-06-04T02:55:13.623Z,99.90
2018-06-04T02:56:17.838Z,99.90
2018-06-04T02:57:22.062Z,99.90
2018-06-04T02:58:26.596Z,99.90
2018-06-04T02:59:31.218Z,99.90
2018-06-04T03:00:35.470Z,99.90
2018-06-04T03:01:39.734Z,99.90
2018-06-04T03:02:44.004Z,99.90
2018-06-04T03:03:48.468Z,99.90
2018-06-04T03:04:52.906Z,99.90
2018-06-04T03:05:57.204Z,99.90
2018-06-04T03:07:01.772Z,99.90
2018-06-04T03:08:18.845Z,99.90
2018-06-04T03:09:23.213Z,99.90
2018-06-04T03:10:27.529Z,99.90
2018-06-04T03:11:32.328Z,99.90
2018-06-04T03:12:39.462Z,99.90
2018-06-04T03:13:43.977Z,99.90
2018-06-04T03:14:49.453Z,99.90
2018-06-04T03:15:54.265Z,99.90
2018-06-04T03:16:59.961Z,99.90
2018-06-04T03:18:04.250Z,99.90
2018-06-04T03:19:08.647Z,99.90
2018-06-04T03:20:13.033Z,99.90
2018-06-04T03:21:17.315Z,99.90
2018-06-04T03:22:21.612Z,99.90
2018-06-04T03:23:25.876Z,99.90
2018-06-04T03:24:30.183Z,99.90
2018-06-04T03:25:34.425Z,99.90
2018-06-04T03:26:38.805Z,99.90
2018-06-04T03:27:43.060Z,99.90
2018-06-04T03:28:47.319Z,99.90
2018-06-04T03:29:51.881Z,99.90
2018-06-04T03:30:56.237Z,99.90
2018-06-04T03:32:00.547Z,99.90
2018-06-04T03:33:05.003Z,99.90
2018-06-04T03:34:09.270Z,99.90
2018-06-04T03:35:13.514Z,99.90
2018-06-04T03:36:17.876Z,99.90
2018-06-04T03:37:22.202Z,99.90
2018-06-04T03:38:26.656Z,99.90
2018-06-04T03:39:30.943Z,99.90
2018-06-04T03:40:35.273Z,99.90
2018-06-04T03:41:39.854Z,99.90
2018-06-04T03:42:44.109Z,99.90
2018-06-04T03:43:48.363Z,99.90
2018-06-04T03:44:52.636Z,99.90
2018-06-04T03:45:57.274Z,99.90
2018-06-04T03:47:04.929Z,99.90
2018-06-04T03:48:10.730Z,99.90
2018-06-04T03:49:17.209Z,99.90
2018-06-04T03:50:23.561Z,99.90
2018-06-04T03:51:29.623Z,99.90
2018-06-04T03:52:34.586Z,99.90
2018-06-04T03:53:39.395Z,99.90
2018-06-04T03:54:43.847Z,99.90
2018-06-04T03:55:48.265Z,99.90
2018-06-04T03:56:52.501Z,99.90
2018-06-04T03:57:56.773Z,99.90
2018-06-04T03:59:01.047Z,99.90
2018-06-04T04:00:05.820Z,99.90
2018-06-04T04:01:10.107Z,99.90
2018-06-04T04:02:14.362Z,99.90
2018-06-04T04:03:18.623Z,99.90
2018-06-04T04:04:22.908Z,99.90
2018-06-04T04:05:27.575Z,99.90
2018-06-04T04:06:32.169Z,99.90
2018-06-04T04:07:36.724Z,99.90
2018-06-04T04:08:41.102Z,99.90
2018-06-04T04:09:45.393Z,99.90
2018-06-04T04:10:49.741Z,99.90
2018-06-04T04:11:54.103Z,99.90
2018-06-04T04:12:58.674Z,99.90
2018-06-04T04:14:03.008Z,99.90
2018-06-04T04:15:07.512Z,99.90
2018-06-04T04:16:12.044Z,99.90
2018-06-04T04:17:16.664Z,99.90
2018-06-04T04:18:21.014Z,99.90
2018-06-04T04:19:25.301Z,99.90
2018-06-04T04:20:29.793Z,99.90
2018-06-04T04:21:34.123Z,99.90
2018-06-04T04:22:38.798Z,99.90
2018-06-04T04:23:44.627Z,99.90
2018-06-04T04:24:49.346Z,99.90
2018-06-04T04:25:53.673Z,99.90
2018-06-04T04:26:58.922Z,99.90
2018-06-04T04:28:03.686Z,99.90
2018-06-04T04:29:07.972Z,99.90
2018-06-04T04:30:12.329Z,99.90
2018-06-04T04:31:16.774Z,99.90
2018-06-04T04:32:21.060Z,99.90
2018-06-04T04:33:26.634Z,99.90
2018-06-04T04:34:30.876Z,99.90
2018-06-04T04:35:35.191Z,99.90
2018-06-04T04:36:39.454Z,99.90
2018-06-04T04:37:43.802Z,99.90
2018-06-04T04:38:48.342Z,99.90
2018-06-04T04:39:52.586Z,99.90
2018-06-04T04:40:56.823Z,99.90
2018-06-04T04:42:01.064Z,99.90
2018-06-04T04:43:05.297Z,99.90
2018-06-04T04:44:09.541Z,99.90
2018-06-04T04:45:14.155Z,99.90
2018-06-04T04:46:18.387Z,99.90
2018-06-04T04:47:23.124Z,99.90
2018-06-04T04:48:27.387Z,99.90
2018-06-04T04:49:32.360Z,99.90
2018-06-04T04:50:36.729Z,99.90
2018-06-04T04:51:56.445Z,99.90
2018-06-04T04:53:03.530Z,99.90
2018-06-04T04:55:12.710Z,99.90
2018-06-04T04:56:17.040Z,99.90
2018-06-04T04:57:21.734Z,99.90
2018-06-04T04:58:26.042Z,99.90
2018-06-04T04:59:30.355Z,99.90
2018-06-04T05:00:34.580Z,99.90
2018-06-04T05:01:38.915Z,99.90
2018-06-04T05:02:43.482Z,99.90
2018-06-04T05:03:48.531Z,99.90
2018-06-04T05:04:52.992Z,99.90
2018-06-04T05:05:58.026Z,99.90
2018-06-04T05:07:02.682Z,99.90
2018-06-04T05:08:09.441Z,99.90
2018-06-04T05:09:16.438Z,99.90
2018-06-04T05:10:32.847Z,99.90
2018-06-04T05:11:38.259Z,99.90
2018-06-04T05:12:43.143Z,99.90
2018-06-04T05:13:47.715Z,99.90
2018-06-04T05:14:52.024Z,99.90
2018-06-04T05:15:56.448Z,99.90
2018-06-04T05:17:01.160Z,99.90
2018-06-04T05:18:06.403Z,99.90
2018-06-04T05:19:10.663Z,99.90
2018-06-04T05:20:15.273Z,99.90
2018-06-04T05:21:20.026Z,99.90
2018-06-04T05:22:24.749Z,99.90
2018-06-04T05:23:29.204Z,99.90
2018-06-04T05:24:34.843Z,99.90
2018-06-04T05:25:39.127Z,99.90
2018-06-04T05:26:43.462Z,99.90
2018-06-04T05:27:48.118Z,99.90
2018-06-04T05:28:52.716Z,99.90
2018-06-04T05:29:57.190Z,99.90
2018-06-04T05:31:02.259Z,99.90
2018-06-04T05:32:06.525Z,99.90
2018-06-04T05:33:10.806Z,99.90
2018-06-04T05:34:15.888Z,99.90
2018-06-04T05:35:27.893Z,99.90
2018-06-04T05:36:53.536Z,99.90
2018-06-04T05:37:58.557Z,99.90
2018-06-04T05:39:03.505Z,99.90
2018-06-04T05:40:08.021Z,99.90
2018-06-04T05:41:12.827Z,99.90
2018-06-04T05:42:17.592Z,99.90
2018-06-04T05:43:21.866Z,99.90
2018-06-04T05:44:32.603Z,99.90
2018-06-04T05:45:37.340Z,99.90
2018-06-04T05:46:41.956Z,99.90
2018-06-04T05:47:46.261Z,99.90
2018-06-04T05:48:50.517Z,99.90
2018-06-04T05:49:54.878Z,99.90
2018-06-04T05:50:59.371Z,99.90
2018-06-04T05:52:03.657Z,99.90
2018-06-04T05:53:07.916Z,99.90
2018-06-04T05:54:12.844Z,99.90
2018-06-04T05:55:17.268Z,99.90
2018-06-04T05:56:38.081Z,99.90
2018-06-04T05:57:43.109Z,99.90
2018-06-04T05:58:47.746Z,99.90
2018-06-04T05:59:52.589Z,99.90
2018-06-04T06:00:57.097Z,99.90
2018-06-04T06:02:01.510Z,99.90
2018-06-04T06:03:05.743Z,99.90
2018-06-04T06:04:10.040Z,99.90
2018-06-04T06:05:14.318Z,99.90
2018-06-04T06:06:18.623Z,99.90
2018-06-04T06:07:23.183Z,99.90
2018-06-04T06:08:27.706Z,99.90
2018-06-04T06:09:31.958Z,99.90
2018-06-04T06:10:36.304Z,99.90
2018-06-04T06:11:40.565Z,99.90
2018-06-04T06:12:45.141Z,99.90
2018-06-04T06:13:49.823Z,99.90
2018-06-04T06:14:54.100Z,99.90
2018-06-04T06:15:58.633Z,99.90
2018-06-04T06:17:03.018Z,99.90
2018-06-04T06:18:07.318Z,99.90
2018-06-04T06:19:11.586Z,99.90
2018-06-04T06:20:15.912Z,99.90
2018-06-04T06:21:20.344Z,99.90
2018-06-04T06:22:24.754Z,99.90
2018-06-04T06:23:29.065Z,99.90
2018-06-04T06:24:33.403Z,99.90
2018-06-04T06:25:37.749Z,99.90
2018-06-04T06:26:42.060Z,99.90
2018-06-04T06:27:46.359Z,99.90
2018-06-04T06:28:50.663Z,99.90
2018-06-04T06:29:54.957Z,99.90
2018-06-04T06:30:59.633Z,99.90
2018-06-04T06:32:04.015Z,99.90
2018-06-04T06:33:08.279Z,99.90
2018-06-04T06:34:12.565Z,99.90
2018-06-04T06:35:16.813Z,99.90
2018-06-04T06:36:21.104Z,99.90
2018-06-04T06:37:25.351Z,99.90
2018-06-04T06:38:29.658Z,99.90
2018-06-04T06:39:33.912Z,99.90
2018-06-04T06:40:38.189Z,99.90
2018-06-04T06:41:42.521Z,99.90
2018-06-04T06:42:47.034Z,99.90
2018-06-04T06:43:51.307Z,99.90
2018-06-04T06:44:55.580Z,99.90
2018-06-04T06:45:59.844Z,99.90
2018-06-04T06:47:04.945Z,99.90
2018-06-04T06:48:09.548Z,99.90
2018-06-04T06:49:13.833Z,99.90
2018-06-04T06:50:18.092Z,99.90
2018-06-04T06:51:22.432Z,99.90
2018-06-04T06:52:27.192Z,99.90
2018-06-04T06:53:31.452Z,99.90
2018-06-04T06:54:35.774Z,99.90
2018-06-04T06:55:40.056Z,99.90
2018-06-04T06:56:44.344Z,99.90
2018-06-04T06:57:48.638Z,99.90
2018-06-04T06:58:52.977Z,99.90
2018-06-04T06:59:57.397Z,99.90
2018-06-04T07:01:01.645Z,99.90
2018-06-04T07:02:05.977Z,99.90
2018-06-04T07:03:10.394Z,99.90
2018-06-04T07:04:15.142Z,99.90
2018-06-04T07:05:19.412Z,99.90
2018-06-04T07:06:23.735Z,99.90
2018-06-04T07:07:28.060Z,99.90
2018-06-04T07:08:32.348Z,99.90
2018-06-04T07:09:36.749Z,99.90
2018-06-04T07:10:41.007Z,99.90
2018-06-04T07:11:45.267Z,99.90
2018-06-04T07:12:49.525Z,99.90
2018-06-04T07:13:53.849Z,99.90
2018-06-04T07:14:58.838Z,99.90
2018-06-04T07:16:03.472Z,99.90
2018-06-04T07:17:08.210Z,99.90
2018-06-04T07:18:12.923Z,99.90
2018-06-04T07:19:19.640Z,99.90
2018-06-04T07:20:24.202Z,99.90
2018-06-04T07:21:28.792Z,99.90
2018-06-04T07:22:33.431Z,99.90
2018-06-04T07:23:37.710Z,99.90
2018-06-04T07:24:41.995Z,99.90
2018-06-04T07:25:46.272Z,99.90
2018-06-04T07:26:50.755Z,99.90
2018-06-04T07:27:55.063Z,99.90
2018-06-04T07:28:59.346Z,99.90
2018-06-04T07:30:03.735Z,99.90
2018-06-04T07:31:08.017Z,99.90
2018-06-04T07:33:16.713Z,99.90
2018-06-04T07:34:20.995Z,99.90
2018-06-04T07:35:25.327Z,99.90
2018-06-04T07:36:29.774Z,99.90
2018-06-04T07:37:34.158Z,99.90
2018-06-04T07:38:39.156Z,99.90
2018-06-04T07:39:43.711Z,99.90
2018-06-04T07:40:48.027Z,99.90
2018-06-04T07:41:52.522Z,99.90
2018-06-04T07:42:56.805Z,99.90
2018-06-04T07:44:01.195Z,99.90
2018-06-04T07:45:05.497Z,99.90
2018-06-04T07:46:09.786Z,99.90
2018-06-04T07:47:14.174Z,99.90
2018-06-04T07:48:18.547Z,99.90
2018-06-04T07:49:22.855Z,99.90
2018-06-04T07:50:27.173Z,99.90
2018-06-04T07:51:31.474Z,99.90
2018-06-04T07:52:35.820Z,99.90
2018-06-04T07:53:40.105Z,99.90
2018-06-04T07:54:44.392Z,99.90
2018-06-04T07:55:49.049Z,99.90
2018-06-04T07:56:53.416Z,99.90
2018-06-04T07:57:57.770Z,99.90
2018-06-04T07:59:02.112Z,99.90
2018-06-04T08:00:07.302Z,99.90
2018-06-04T08:01:11.625Z,99.90
2018-06-04T08:02:15.915Z,99.90
2018-06-04T08:03:20.360Z,99.90
2018-06-04T08:04:24.979Z,99.90
2018-06-04T08:05:29.291Z,99.90
2018-06-04T08:06:33.744Z,99.90
2018-06-04T08:07:38.096Z,99.90
2018-06-04T08:08:43.350Z,99.90
2018-06-04T08:09:47.634Z,99.90
2018-06-04T08:10:52.417Z,99.90
2018-06-04T08:11:56.719Z,99.90
2018-06-04T08:13:01.305Z,99.90
2018-06-04T08:14:05.679Z,99.90
2018-06-04T08:15:09.960Z,99.90
2018-06-04T08:16:14.461Z,99.90
2018-06-04T08:17:18.897Z,99.90
2018-06-04T08:18:23.323Z,99.90
2018-06-04T08:19:27.599Z,99.90
2018-06-04T08:20:32.013Z,99.90
2018-06-04T08:21:36.590Z,99.90
2018-06-04T08:22:40.874Z,99.90
2018-06-04T08:23:45.423Z,99.90
2018-06-04T08:24:50.140Z,99.90
2018-06-04T08:25:54.429Z,99.90
2018-06-04T08:26:58.693Z,99.90
2018-06-04T08:28:02.996Z,99.90
2018-06-04T08:29:07.299Z,99.90
2018-06-04T08:30:11.918Z,99.70
2018-06-04T08:31:16.224Z,98.30
2018-06-04T08:32:20.501Z,98.00
2018-06-04T08:33:25.392Z,97.70
2018-06-04T08:34:29.741Z,97.60
2018-06-04T08:35:34.028Z,97.50
2018-06-04T08:36:38.475Z,97.40
2018-06-04T08:37:42.866Z,96.70
2018-06-04T08:38:47.232Z,96.20
2018-06-04T08:39:51.565Z,96.10
2018-06-04T08:40:56.200Z,95.90
2018-06-04T08:42:37.142Z,96.50
2018-06-04T08:43:41.519Z,96.20
2018-06-04T08:44:46.163Z,96.10
2018-06-04T08:45:50.505Z,95.60
2018-06-04T08:46:54.959Z,95.30
2018-06-04T08:48:00.996Z,95.00
2018-06-04T08:49:05.384Z,94.40
2018-06-04T08:50:09.725Z,95.20
2018-06-04T08:51:14.074Z,95.60
2018-06-04T08:52:18.550Z,95.10
2018-06-04T08:53:22.851Z,95.30
2018-06-04T08:54:27.376Z,95.80
2018-06-04T08:55:31.697Z,94.10
2018-06-04T08:56:35.967Z,93.20
2018-06-04T08:57:40.582Z,93.30
2018-06-04T08:58:45.033Z,93.90
2018-06-04T08:59:49.401Z,93.60
2018-06-04T09:00:53.699Z,93.40
2018-06-04T09:01:57.862Z,93.80
2018-06-04T09:03:02.211Z,93.60
2018-06-04T09:04:06.686Z,93.20
2018-06-04T09:05:10.963Z,93.50
2018-06-04T09:06:15.191Z,91.30
2018-06-04T09:07:19.501Z,91.80
2018-06-04T09:08:24.061Z,93.20
2018-06-04T09:09:28.582Z,93.20
2018-06-04T09:10:32.938Z,91.50
2018-06-04T09:11:37.241Z,91.60
2018-06-04T09:12:42.036Z,92.70
2018-06-04T09:13:46.637Z,93.80
2018-06-04T09:14:50.961Z,95.20
2018-06-04T09:15:55.264Z,94.40
2018-06-04T09:16:59.565Z,95.60
2018-06-04T09:18:03.862Z,95.60
2018-06-04T09:19:08.404Z,94.80
2018-06-04T09:20:12.746Z,94.10
2018-06-04T09:21:17.026Z,93.20
2018-06-04T09:22:21.547Z,92.00
2018-06-04T09:23:25.860Z,92.40
2018-06-04T09:24:30.231Z,92.80
2018-06-04T09:25:34.588Z,91.40
2018-06-04T09:26:38.917Z,91.50
2018-06-04T09:27:43.292Z,91.70
2018-06-04T09:28:47.606Z,90.90
2018-06-04T09:29:52.324Z,90.30
2018-06-04T09:30:56.693Z,88.00
2018-06-04T09:32:01.014Z,89.00
2018-06-04T09:33:05.372Z,90.10
2018-06-04T09:34:09.759Z,90.00
2018-06-04T09:35:14.382Z,90.10
2018-06-04T09:36:18.676Z,90.10
2018-06-04T09:37:23.073Z,89.50
2018-06-04T09:38:27.609Z,88.60
2018-06-04T09:39:31.908Z,90.80
2018-06-04T09:40:36.265Z,90.80
2018-06-04T09:41:40.704Z,90.80
2018-06-04T09:42:44.861Z,90.70
2018-06-04T09:43:49.204Z,91.40
2018-06-04T09:44:53.767Z,90.10
2018-06-04T09:45:58.945Z,88.30
2018-06-04T09:47:04.614Z,86.70
2018-06-04T09:48:09.113Z,87.10
2018-06-04T09:49:13.600Z,89.50
2018-06-04T09:50:18.062Z,91.10
2018-06-04T09:51:22.649Z,91.10
2018-06-04T09:52:26.898Z,89.80
2018-06-04T09:53:31.572Z,89.00
2018-06-04T09:54:36.192Z,90.00
2018-06-04T09:55:40.452Z,90.20
2018-06-04T09:56:44.716Z,88.90
2018-06-04T09:57:49.030Z,88.40
2018-06-04T09:58:53.241Z,87.60
2018-06-04T09:59:57.585Z,89.20
2018-06-04T10:01:02.084Z,90.10
2018-06-04T10:02:06.699Z,88.00
2018-06-04T10:03:11.644Z,89.10
2018-06-04T10:04:16.822Z,88.70
2018-06-04T10:05:21.303Z,87.70
2018-06-04T10:06:25.682Z,84.90
2018-06-04T10:07:30.344Z,84.20
2018-06-04T10:08:35.154Z,83.20
2018-06-04T10:09:39.536Z,83.80
2018-06-04T10:10:44.203Z,84.10
2018-06-04T10:11:48.642Z,86.30
2018-06-04T10:12:53.109Z,85.20
2018-06-04T10:13:57.653Z,85.40
2018-06-04T10:15:02.251Z,83.40
2018-06-04T10:16:06.735Z,82.10
2018-06-04T10:17:11.135Z,84.20
2018-06-04T10:18:15.905Z,82.50
2018-06-04T10:19:20.397Z,82.70
2018-06-04T10:20:24.764Z,82.50
2018-06-04T10:21:29.075Z,80.90
2018-06-04T10:22:33.542Z,79.00
2018-06-04T10:23:38.585Z,80.80
2018-06-04T10:24:43.288Z,82.20
2018-06-04T10:25:47.601Z,82.30
2018-06-04T10:26:52.147Z,82.10
2018-06-04T10:27:56.865Z,80.70
2018-06-04T10:29:01.538Z,81.70
2018-06-04T10:30:05.955Z,84.60
2018-06-04T10:31:10.370Z,82.00
2018-06-04T10:32:15.348Z,82.00
2018-06-04T10:33:19.928Z,80.40
2018-06-04T10:34:25.019Z,82.90
2018-06-04T10:35:29.632Z,81.20
2018-06-04T10:36:34.014Z,81.50
2018-06-04T10:37:40.605Z,80.80
2018-06-04T10:38:45.138Z,80.40
2018-06-04T10:39:49.759Z,83.10
2018-06-04T10:40:54.052Z,77.20
2018-06-04T10:41:58.365Z,77.30
2018-06-04T10:43:03.049Z,76.90
2018-06-04T10:44:07.542Z,74.30
2018-06-04T10:45:11.913Z,75.20
2018-06-04T10:46:16.383Z,73.00
2018-06-04T10:47:20.815Z,71.70
2018-06-04T10:48:25.960Z,73.00
2018-06-04T10:49:31.429Z,76.40
2018-06-04T10:50:35.764Z,76.80
2018-06-04T10:51:40.089Z,75.50
2018-06-04T10:52:44.772Z,77.30
2018-06-04T10:53:49.368Z,73.30
2018-06-04T10:54:54.076Z,73.50
2018-06-04T10:55:58.625Z,71.40
2018-06-04T10:57:03.653Z,75.20
2018-06-04T10:58:08.392Z,71.60
2018-06-04T10:59:12.911Z,70.10
2018-06-04T11:00:17.478Z,70.60
2018-06-04T11:01:21.856Z,68.90
2018-06-04T11:02:26.174Z,66.60
2018-06-04T11:03:30.484Z,66.60
2018-06-04T11:04:35.405Z,67.00
2018-06-04T11:05:40.909Z,65.60
2018-06-04T11:06:45.192Z,65.20
2018-06-04T11:07:49.551Z,63.80
2018-06-04T11:08:53.864Z,61.40
2018-06-04T11:09:58.376Z,59.80
2018-06-04T11:11:02.819Z,58.40
2018-06-04T11:12:07.176Z,57.70
2018-06-04T11:13:11.488Z,56.20
2018-06-04T11:14:16.339Z,56.80
2018-06-04T11:15:20.971Z,57.30
2018-06-04T11:16:25.260Z,57.50
2018-06-04T11:17:29.775Z,55.60
2018-06-04T11:18:34.218Z,53.00
2018-06-04T11:19:38.612Z,54.30
2018-06-04T11:20:42.971Z,54.80
2018-06-04T11:21:47.280Z,52.70
2018-06-04T11:22:51.622Z,51.90
2018-06-04T11:23:56.025Z,50.30
2018-06-04T11:25:01.095Z,48.60
2018-06-04T11:26:05.301Z,46.90
2018-06-04T11:27:09.670Z,45.40
2018-06-04T11:28:13.936Z,46.00
2018-06-04T11:29:18.400Z,47.10
2018-06-04T11:30:23.136Z,48.10
2018-06-04T11:31:27.388Z,48.20
2018-06-04T11:32:31.562Z,49.40
2018-06-04T11:33:37.119Z,49.70
2018-06-04T11:34:41.504Z,50.40
2018-06-04T11:35:47.844Z,51.40
2018-06-04T11:36:56.969Z,51.70
2018-06-04T11:38:02.389Z,51.50
2018-06-04T11:39:08.509Z,52.00
2018-06-04T11:40:12.876Z,52.20
2018-06-04T11:41:17.783Z,54.20
2018-06-04T11:42:23.135Z,55.70
2018-06-04T11:43:29.284Z,55.70
2018-06-04T11:44:33.516Z,56.20
2018-06-04T11:45:38.456Z,57.40
2018-06-04T11:46:43.062Z,58.50
2018-06-04T11:47:47.691Z,59.40
2018-06-04T11:48:52.817Z,61.20
2018-06-04T11:49:57.892Z,60.10
2018-06-04T11:51:02.416Z,59.40
2018-06-04T11:52:06.975Z,60.20
2018-06-04T11:53:11.773Z,61.40
2018-06-04T11:54:16.083Z,60.00
2018-06-04T11:55:20.661Z,61.90
2018-06-04T11:56:25.452Z,57.20
2018-06-04T11:57:31.091Z,59.50
2018-06-04T11:58:37.658Z,57.90
2018-06-04T11:59:43.214Z,55.50
2018-06-04T12:00:48.272Z,53.90
2018-06-04T12:01:52.511Z,53.20
2018-06-04T12:02:56.950Z,53.90
2018-06-04T12:04:02.264Z,52.60
2018-06-04T12:05:07.789Z,51.60
2018-06-04T12:06:12.155Z,51.30
2018-06-04T12:07:17.617Z,51.70
2018-06-04T12:08:21.932Z,48.40
2018-06-04T12:09:26.604Z,48.90
2018-06-04T12:10:31.992Z,46.50
2018-06-04T12:11:36.955Z,46.90
2018-06-04T12:12:41.331Z,47.50
2018-06-04T12:13:45.807Z,46.30
2018-06-04T12:14:50.412Z,46.70
2018-06-04T12:15:54.885Z,47.00
2018-06-04T12:16:59.153Z,47.60
2018-06-04T12:18:03.727Z,46.80
2018-06-04T12:19:08.021Z,46.90
2018-06-04T12:20:13.411Z,47.20
2018-06-04T12:21:17.663Z,47.40
2018-06-04T12:22:22.000Z,47.00
2018-06-04T12:23:26.269Z,47.90
2018-06-04T12:24:30.874Z,47.80
2018-06-04T12:26:06.294Z,49.70
2018-06-04T12:27:12.720Z,48.90
2018-06-04T12:28:18.471Z,50.70
2018-06-04T12:29:23.568Z,50.80
2018-06-04T12:30:28.893Z,48.10
2018-06-04T12:31:33.310Z,49.20
2018-06-04T12:32:37.825Z,48.20
2018-06-04T12:33:44.152Z,48.80
2018-06-04T12:34:49.552Z,47.00
2018-06-04T12:35:54.292Z,47.20
2018-06-04T12:36:58.700Z,48.80
2018-06-04T12:38:04.091Z,47.40
2018-06-04T12:39:11.310Z,47.50
2018-06-04T12:40:15.656Z,47.90
2018-06-04T12:41:21.947Z,47.00
2018-06-04T12:42:28.193Z,47.30
2018-06-04T12:43:33.680Z,47.70
2018-06-04T12:44:40.695Z,46.90
2018-06-04T12:45:45.169Z,46.20
2018-06-04T12:46:49.639Z,47.20
2018-06-04T12:47:53.884Z,46.50
2018-06-04T12:48:59.062Z,47.00
2018-06-04T12:50:04.511Z,46.80
2018-06-04T12:51:17.365Z,45.00
2018-06-04T12:52:22.134Z,45.80
2018-06-04T12:53:27.069Z,43.70
2018-06-04T12:54:31.335Z,44.00
2018-06-04T12:55:36.265Z,44.80
2018-06-04T12:56:41.246Z,43.50
2018-06-04T12:57:46.299Z,44.10
2018-06-04T12:58:54.560Z,44.00
2018-06-04T12:59:59.162Z,43.60
2018-06-04T13:01:04.336Z,44.10
2018-06-04T13:02:12.103Z,43.70
2018-06-04T13:03:16.545Z,44.60
2018-06-04T13:04:21.477Z,44.50
2018-06-04T13:05:26.606Z,43.70
2018-06-04T13:06:31.187Z,44.50
2018-06-04T13:07:35.444Z,42.80
2018-06-04T13:08:39.694Z,42.40
2018-06-04T13:09:44.856Z,43.10
2018-06-04T13:10:49.133Z,43.10
2018-06-04T13:11:53.594Z,43.40
2018-06-04T13:12:59.497Z,43.80
2018-06-04T13:14:04.668Z,44.70
2018-06-04T13:15:09.647Z,45.30
2018-06-04T13:16:14.613Z,46.10
2018-06-04T13:17:19.256Z,45.90
2018-06-04T13:18:25.558Z,46.80
2018-06-04T13:19:29.838Z,47.20
2018-06-04T13:20:34.540Z,48.50
2018-06-04T13:21:39.585Z,49.50
2018-06-04T13:22:44.093Z,49.70
2018-06-04T13:23:48.325Z,50.30
2018-06-04T13:24:54.282Z,50.70
2018-06-04T13:25:59.344Z,50.90
2018-06-04T13:27:05.547Z,50.70
2018-06-04T13:28:11.861Z,50.60
2018-06-04T13:29:18.508Z,50.00
2018-06-04T13:30:22.761Z,47.90
2018-06-04T13:31:27.308Z,46.10
2018-06-04T13:32:33.925Z,45.70
2018-06-04T13:33:38.682Z,46.20
2018-06-04T13:34:43.223Z,44.60
2018-06-04T13:35:47.821Z,44.20
2018-06-04T13:36:54.288Z,43.40
2018-06-04T13:37:58.812Z,41.30
2018-06-04T13:39:03.203Z,40.10
2018-06-04T13:40:07.813Z,41.10
2018-06-04T13:41:13.083Z,40.60
2018-06-04T13:42:22.860Z,40.30
2018-06-04T13:43:27.477Z,39.30
2018-06-04T13:44:33.250Z,38.80
2018-06-04T13:45:42.650Z,37.80
2018-06-04T13:46:48.302Z,37.20
2018-06-04T13:47:52.867Z,37.60
2018-06-04T13:48:57.180Z,38.50
2018-06-04T13:50:02.491Z,37.50
2018-06-04T13:51:09.534Z,38.10
2018-06-04T13:52:13.807Z,39.10
2018-06-04T13:53:18.235Z,39.10
2018-06-04T13:54:22.801Z,39.40
2018-06-04T13:55:27.049Z,38.30
2018-06-04T13:56:31.294Z,38.50
2018-06-04T13:57:36.264Z,37.60
2018-06-04T13:58:41.567Z,38.50